FVHP weather

Home Park Airport
Home Park, Mashonaland East Province, Zimbabwe

Public forecast

Using degrees Celsius for public forecast. Weather courtesy of forecast.io.

Closest aviation weather report (METAR) to Home Park Airport

Closest report is Robert Gabriel Mugabe International Airport, 39.9 nm (74.0 km) WNW. Retrieved 2019/10/17 11:00 UTC (26 minutes ago):

FVRG 171100Z 09015KT CAVOK 28/M01 Q1023 NOSIG

Closest aviation forecast (TAF) to Home Park Airport

Forecast is more than 12 hours old.

Closest forecast is Robert Gabriel Mugabe International Airport, 39.9 nm (74.0 km) WNW. Retrieved 2019/10/16 06:00 UTC (1 day ago):

TAF FVRG 160400Z 1606/1712 10008KT CAVOK